KGCN/GCN METAR and TAF weather

Enter ICAO airport designator
Station Type Date Time Source
KGCN METAR 2022/05/26 04:54 UTC NOAA

KGCN 260454Z AUTO 00000KT 10SM CLR 08/M08 A3018 RMK AO2 SLP142 T00831083 TSNO


Station Type Date Time Source
KGCN Decoded METAR 2022/05/26 04:54 UTC NOAA

GRAND CANYON NATL PARK AIRPORT , AZ, United States (KGCN) 35-57N 112-09W 2016M
May 26, 2022 - 12:54 AM EDT / 2022.05.26 0454 UTC
Wind: Calm:0
Visibility: 10 mile(s):0
Sky conditions: clear
Temperature: 46.9 F (8.3 C)
Dew Point: 17.1 F (-8.3 C)
Relative Humidity: 29%
Pressure (altimeter): 30.18 in. Hg (1022 hPa)
ob: KGCN 260454Z AUTO 00000KT 10SM CLR 08/M08 A3018 RMK AO2 SLP142 T00831083 TSNO
cycle: 5

Station Type Date Time Source
KGCN TAF 2022/05/25 18:40 UTC NOAA

TAF KGCN 251738Z 2518/2618 07009KT P6SM SKC
FM252000 28008KT P6SM SKC
FM260200 VRB04KT P6SM FEW250

Example: see airport list